# Land Stadt Wetter Temperatur Luftdruck Luftfeuchtigkeit Sichtweite Windgeschwindigkeit Windrichtung Ortszeit
1 sa Riad Clouds 41 999 8 10000 22 38 02.08.2018 14:21
2 au Alice Springs Clear 18 1017 17 10000 13 180 02.08.2018 14:21
3 iq Bagdad Dust 39 1000 24 1000 22 330 02.08.2018 14:22
4 tr Alanya Clear 31 1006 30 10000 28 300 02.08.2018 14:22
5 de Trier Clouds 28 1009 30 10000 12 114 02.08.2018 14:21
6 ae Dubai Dust 40 996 33 500 17 290 02.08.2018 14:21
7 tr Ankara Clouds 30 1005 33 10000 6 0 02.08.2018 14:23
8 mn Uliastai Clouds 20 1008 34 10000 21 291 02.08.2018 14:23
9 cn Lhasa Clouds 23 1000 34 10000 6 173 02.08.2018 14:22
10 us Death Valley Clouds 34 1011 36 10000 5 118 02.08.2018 14:22
11 es Barcelona Clear 32 1008 37 10000 22 280 02.08.2018 14:22
12 qa Doha Clouds 40 997 37 9000 17 120 02.08.2018 14:23
13 af Kabul Clouds 30 1003 38 10000 16 75 02.08.2018 14:21
14 gb Manchester Clear 27 1008 38 10000 4 0 02.08.2018 14:21
15 es Palma de Mallorca Clear 35 1008 38 10000 15 220 02.08.2018 14:22
16 bo Potisi Clouds 3 1017 39 10000 6 281 02.08.2018 14:22
17 de Oberstdorf Clouds 22 1011 40 10000 6 195 02.08.2018 14:21
18 gr Athen Clouds 31 1005 41 10000 13 292 02.08.2018 14:22
19 de München Clear 26 1012 42 10000 6 120 02.08.2018 14:21
20 de Stuttgart Clear 27 1010 42 10000 11 90 02.08.2018 14:22
21 es Madrid Clear 24 1014 43 10000 11 228 02.08.2018 14:23
22 no Oslo Clouds 24 1016 44 10000 12 187 02.08.2018 14:23
23 de Freiburg Clouds 25 1006 44 10000 11 360 02.08.2018 14:22
24 eg Kairo Clear 30 1008 45 10000 9 340 02.08.2018 14:22
25 it Rom Clear 27 1010 46 10000 15 60 02.08.2018 14:23
26 de Braunschweig Clear 27 1011 47 10000 15 120 02.08.2018 14:21
27 fr Paris Clear 26 1006 47 10000 20 250 02.08.2018 14:22
28 de Köln Clear 28 1010 47 10000 11 160 02.08.2018 14:21
29 it Mailand Clear 26 1010 48 10000 6 0 02.08.2018 14:21
30 ch Bern Clear 22 1012 48 10000 9 310 02.08.2018 14:23
31 es Sevilla Clear 27 1011 48 10000 7 20 02.08.2018 14:22
32 ru Moskau Clear 27 1020 49 10000 8 130 02.08.2018 14:22
33 de Frankfurt Clear 27 1008 49 10000 13 70 02.08.2018 14:22
34 se Stockholm Clear 26 1017 49 10000 11 140 02.08.2018 14:23
35 gb London Clouds 26 1007 50 10000 9 110 02.08.2018 14:22
36 de Berlin Clear 29 1010 50 10000 14 77 02.08.2018 14:21
37 de Magdeburg Clouds 28 1007 51 10000 11 101 02.08.2018 14:22
38 fr Nizza Clouds 28 1010 51 10000 7 106 02.08.2018 14:22
39 ch Andermatt Clouds 20 1012 51 10000 3 186 02.08.2018 14:23
40 de Hamburg Clear 28 1012 52 10000 13 110 02.08.2018 14:21
41 mg Antananarivo Clouds 20 1023 52 10000 20 120 02.08.2018 14:21
42 it Palermo Clear 31 996 52 10000 2 283 02.08.2018 14:22
43 de Kassel Clear 26 1012 53 10000 13 120 02.08.2018 14:21
44 ad Andorra la Vella Clear 23 1014 54 10000 14 220 02.08.2018 14:22
45 fi Rovaniemi Clouds 17 1018 55 10000 11 230 02.08.2018 14:21
46 ru Werchojansk Clouds 17 1009 55 10000 3 60 02.08.2018 14:22
47 at Innsbruck Clear 20 1013 56 10000 9 280 02.08.2018 14:23
48 mn Ulaanbaatar Clouds 20 1009 56 10000 11 360 02.08.2018 14:23
49 th Bangkok Clouds 32 1006 57 10000 12 185 02.08.2018 14:21
50 de Hannover Clouds 27 1011 58 10000 13 140 02.08.2018 14:21
51 de Nürnberg Clear 25 1011 59 10000 13 110 02.08.2018 14:21
52 au Sydney Clear 13 1009 59 10000 11 265 02.08.2018 14:22
53 us Denver Clouds 21 1015 59 10000 3 190 02.08.2018 14:21
54 au Perth Clouds 18 1017 59 10000 9 10 02.08.2018 14:21
55 de Flensburg Clouds 26 1013 59 10000 22 89 02.08.2018 14:21
56 us New York Clear 19 1018 60 10000 6 290 02.08.2018 14:22
57 id Jakarta Clouds 32 1007 60 10000 20 18 02.08.2018 14:22
58 de Torfhaus Clouds 22 1012 61 10000 14 122 02.08.2018 14:22
59 ru Surgut Clouds 15 1004 62 10000 36 300 02.08.2018 14:23
60 ru Jakutsk Clouds 20 1003 63 10000 12 104 02.08.2018 14:22
61 ua Kiew Clouds 28 1002 63 10000 2 304 02.08.2018 14:21
62 de Dresden Clear 26 1001 63 10000 6 60 02.08.2018 14:22
63 de Bremen Clear 26 1012 63 10000 15 120 02.08.2018 14:22
64 fj Suva Clouds 24 1017 64 10000 19 120 02.08.2018 14:21
65 de Emden Clouds 27 1011 64 10000 18 114 02.08.2018 14:21
66 us Las Vegas Clouds 27 1010 65 10000 2 292 02.08.2018 14:21
67 vn Hanoi Rain 33 1002 65 10000 7 148 02.08.2018 14:21
68 tr Istanbul Clouds 28 1006 65 10000 9 160 02.08.2018 14:23
69 pt Lissabon Clouds 22 1015 66 10000 20 330 02.08.2018 14:22
70 es Tarifa Clouds 28 1013 66 10000 21 260 02.08.2018 14:21
71 cl Santiago Clouds 8 1026 67 10000 2 350 02.08.2018 14:23
72 ru Amderma Clouds 8 1010 68 10000 35 306 02.08.2018 14:23
73 jp Tokio Clouds 31 1004 68 10000 24 180 02.08.2018 14:22
74 ma Marrakesch Clouds 26 1015 69 8000 9 270 02.08.2018 14:23
75 za Kapstadt Rain 14 1022 69 10000 20 180 02.08.2018 14:22
76 us Los Angeles Clear 21 1014 70 10000 7 120 02.08.2018 14:22
77 mv Male Clouds 31 1009 70 10000 11 350 02.08.2018 14:23
78 au Darwin Clear 27 1011 70 10000 15 310 02.08.2018 14:22
79 at Wien Clouds 23 1011 70 10000 15 310 02.08.2018 14:22
80 ru Anadyr Clear 8 1017 70 10000 14 130 02.08.2018 14:23
81 us Honolulu Clouds 26 1017 71 10000 20 60 02.08.2018 14:22
82 fi Helsinki Clouds 22 1020 71 10000 11 90 02.08.2018 14:21
83 ke Nairobi Clouds 17 1023 72 10000 9 180 02.08.2018 14:22
84 ck Avarua Clouds 22 1016 73 10000 9 150 02.08.2018 14:22
85 us Tucson Clear 24 1016 74 10000 17 140 02.08.2018 14:21
86 bg Warna Clouds 29 1005 74 10000 9 0 02.08.2018 14:21
87 jp Nagasaki Clouds 31 1009 74 10000 20 230 02.08.2018 14:21
88 ie Dublin Clear 22 1009 75 10000 9 50 02.08.2018 14:21
89 cn Shanghai Clear 36 1002 75 10000 18 150 02.08.2018 14:21
90 ph Manila Clouds 30 1004 75 10000 9 260 02.08.2018 14:21
91 de Hiddensee Clouds 28 1015 76 10000 24 86 02.08.2018 14:21
92 in Jagatsukh Clouds 26 1010 76 10000 12 202 02.08.2018 14:22
93 us Nome Clear 6 1005 76 10000 7 340 02.08.2018 14:23
94 is Reykjavik Clouds 10 1008 76 10000 11 340 02.08.2018 14:22
95 et Addis Abeba Clouds 18 1024 77 10000 11 150 02.08.2018 14:23
96 nz Wellington Clouds 11 1022 78 10000 33 350 02.08.2018 14:23
97 us Chicago Clear 21 1012 78 10000 3 234 02.08.2018 14:23
98 de Helgoland Clouds 20 1013 79 10000 17 92 02.08.2018 14:22
99 bo La Paz Clouds -1 1037 80 10000 4 0 02.08.2018 14:22
100 es Las Palmas de Gran Canaria Clouds 24 1018 80 10000 18 19 02.08.2018 14:21
101 uy Montevideo Clear 13 1015 80 10000 13 60 02.08.2018 14:22
102 no Hammerfest Rain 9 1014 81 10000 41 240 02.08.2018 14:22
103 do Santo Domingo Clouds 26 1015 81 10000 5 1 02.08.2018 14:21
104 ma Casablanca Clouds 24 1013 81 6000 15 40 02.08.2018 14:23
105 mx Veracruz Clouds 24 1010 82 10000 2 217 02.08.2018 14:21
106 us Miami Clouds 26 1015 82 10000 0 0 02.08.2018 14:23
107 bg Sofia Clouds 19 1013 82 10000 7 340 02.08.2018 14:21
108 in Mumbai Clouds 28 1006 83 1000 30 220 02.08.2018 14:22
109 fr Bordeaux Clouds 22 1011 83 10000 13 300 02.08.2018 14:21
110 pe Cusco Clouds 7 1021 83 10000 2 236 02.08.2018 14:23
111 cd Kisangani Clouds 23 1012 84 10000 4 24 02.08.2018 14:23
112 br Rio de Janeiro Clear 17 1021 84 10000 6 280 02.08.2018 14:22
113 ca Montreal Clear 14 1018 85 10000 7 240 02.08.2018 14:22
114 sb Honiara Clouds 26 1012 85 10000 5 139 02.08.2018 14:22
115 us Fairbanks Clear 16 999 85 10000 6 80 02.08.2018 14:23
116 mx Mexiko Stadt Clouds 16 1020 85 10000 2 169 02.08.2018 14:21
117 kr Seoul Rain 28 1004 86 10000 17 200 02.08.2018 14:21
118 gb Glasgow Clouds 18 1011 87 9000 11 90 02.08.2018 14:21
119 ec San Cristobal Clouds 21 1014 88 10000 22 174 02.08.2018 14:22
120 bs Nassau Clouds 26 1015 89 10000 0 0 02.08.2018 14:22
121 pg Port Moresby Clouds 25 1009 90 10000 21 148 02.08.2018 14:21
122 ar Buenos Aires Clear 15 1013 90 10000 11 20 02.08.2018 14:22
123 ar Esquel Snow -1 1001 90 2294 17 0 02.08.2018 14:22
124 ar Ushuaia Clouds 1 975 93 6000 19 240 02.08.2018 14:22
125 gl Nuuk Rain 9 1012 93 10000 43 180 02.08.2018 14:22
126 in Nagpur Rain 25 1003 94 2500 15 270 02.08.2018 14:21
127 br Manaus Clear 25 1013 94 10000 4 250 02.08.2018 14:21
128 cn Peking Clouds 24 998 98 10000 2 265 02.08.2018 14:23